createdAt,value
2023-02-11T00:00:51.350Z,38.12
2023-02-11T00:03:55.785Z,39.68
2023-02-11T00:06:59.708Z,38.62
2023-02-11T00:10:03.816Z,38.51
2023-02-11T00:13:07.631Z,38.81
2023-02-11T00:16:11.440Z,38.03
2023-02-11T00:19:15.412Z,38.91
2023-02-11T00:22:20.829Z,39.46
2023-02-11T00:25:25.026Z,39.54
2023-02-11T00:28:29.138Z,39.32
2023-02-11T00:31:32.943Z,38.92
2023-02-11T00:34:36.760Z,40.18
2023-02-11T00:37:40.892Z,39.73
2023-02-11T00:40:44.727Z,40.87
2023-02-11T00:43:48.705Z,39.66
2023-02-11T00:46:52.818Z,40.49
2023-02-11T00:49:56.954Z,40.47
2023-02-11T00:53:00.947Z,41.31
2023-02-11T00:56:04.876Z,40.26
2023-02-11T00:59:08.979Z,40.45
2023-02-11T01:02:15.105Z,40.49
2023-02-11T01:05:19.607Z,40.25
2023-02-11T01:08:23.719Z,39.64
2023-02-11T01:11:27.566Z,39.14
2023-02-11T01:14:32.664Z,38.00
2023-02-11T01:17:36.870Z,39.49
2023-02-11T01:20:40.782Z,39.29
2023-02-11T01:23:44.782Z,38.72
2023-02-11T01:26:48.797Z,40.16
2023-02-11T01:29:52.315Z,40.17
2023-02-11T01:32:56.368Z,40.26
2023-02-11T01:36:00.558Z,39.39
2023-02-11T01:39:04.182Z,38.30
2023-02-11T01:42:08.069Z,38.04
2023-02-11T01:45:12.152Z,37.81
2023-02-11T01:48:16.389Z,37.34
2023-02-11T01:51:20.182Z,38.33
2023-02-11T01:54:24.372Z,38.08
2023-02-11T01:57:28.135Z,36.81
2023-02-11T02:00:32.322Z,37.35
2023-02-11T02:03:38.546Z,37.59
2023-02-11T02:06:42.935Z,36.81
2023-02-11T02:09:48.318Z,36.48
2023-02-11T02:12:52.531Z,35.63
2023-02-11T02:15:56.519Z,36.43
2023-02-11T02:19:00.590Z,35.59
2023-02-11T02:22:04.803Z,35.55
2023-02-11T02:25:08.842Z,35.03
2023-02-11T02:28:12.870Z,35.00
2023-02-11T02:31:16.870Z,35.38
2023-02-11T02:34:20.585Z,34.79
2023-02-11T02:37:26.622Z,35.04
2023-02-11T02:40:30.594Z,34.58
2023-02-11T02:43:34.423Z,34.85
2023-02-11T02:46:38.641Z,35.89
2023-02-11T02:49:42.563Z,35.37
2023-02-11T02:52:46.488Z,35.09
2023-02-11T02:55:52.138Z,34.75
2023-02-11T02:58:55.826Z,33.89
2023-02-11T03:01:59.777Z,34.31
2023-02-11T03:05:03.859Z,34.02
2023-02-11T03:08:07.870Z,34.21
2023-02-11T03:11:11.610Z,35.50
2023-02-11T03:14:17.575Z,35.03
2023-02-11T03:17:21.462Z,34.72
2023-02-11T03:20:25.470Z,34.30
2023-02-11T03:23:29.426Z,34.33
2023-02-11T03:26:33.306Z,34.55
2023-02-11T03:29:37.267Z,35.08
2023-02-11T03:32:41.416Z,34.43
2023-02-11T03:35:44.976Z,35.56
2023-02-11T03:38:50.892Z,35.02
2023-02-11T03:41:54.816Z,34.67
2023-02-11T03:45:01.562Z,35.68
2023-02-11T03:48:05.531Z,35.32
2023-02-11T03:51:11.258Z,35.10
2023-02-11T03:54:15.310Z,34.63
2023-02-11T03:57:19.204Z,35.61
2023-02-11T04:00:23.114Z,35.03
2023-02-11T04:03:29.401Z,35.70
2023-02-11T04:06:33.231Z,36.19
2023-02-11T04:09:37.369Z,36.46
2023-02-11T04:12:41.355Z,36.30
2023-02-11T04:15:48.783Z,36.29
2023-02-11T04:18:55.977Z,36.19
2023-02-11T04:21:59.918Z,36.72
2023-02-11T04:25:05.909Z,36.64
2023-02-11T04:28:11.512Z,36.48
2023-02-11T04:31:15.863Z,36.34
2023-02-11T04:34:19.823Z,36.56
2023-02-11T04:37:23.607Z,36.63
2023-02-11T04:40:27.629Z,36.84
2023-02-11T04:43:31.901Z,36.49
2023-02-11T04:46:36.123Z,36.41
2023-02-11T04:49:40.024Z,35.61
2023-02-11T04:52:43.976Z,34.78
2023-02-11T04:55:51.366Z,33.93
2023-02-11T04:58:55.328Z,32.89
2023-02-11T05:01:59.336Z,32.94
2023-02-11T05:05:04.321Z,32.55
2023-02-11T05:08:08.186Z,31.46
2023-02-11T05:11:12.596Z,30.90
2023-02-11T05:14:16.504Z,32.19
2023-02-11T05:17:20.677Z,30.51
2023-02-11T05:20:24.608Z,31.42
2023-02-11T05:23:28.521Z,30.52
2023-02-11T05:26:32.427Z,30.14
2023-02-11T05:29:38.040Z,30.46
2023-02-11T05:32:42.155Z,29.68
2023-02-11T05:35:46.101Z,30.58
2023-02-11T05:38:51.998Z,30.02
2023-02-11T05:41:55.916Z,30.04
2023-02-11T05:45:00.224Z,29.87
2023-02-11T05:48:04.494Z,30.48
2023-02-11T05:51:08.662Z,30.75
2023-02-11T05:54:12.669Z,30.80
2023-02-11T05:57:16.630Z,30.35
2023-02-11T06:00:26.679Z,30.24
2023-02-11T06:03:30.787Z,29.37
2023-02-11T06:06:34.787Z,30.73
2023-02-11T06:09:38.917Z,31.18
2023-02-11T06:12:43.529Z,29.46
2023-02-11T06:15:47.407Z,30.77
2023-02-11T06:18:51.270Z,31.50
2023-02-11T06:21:55.326Z,29.53
2023-02-11T06:25:02.054Z,30.58
2023-02-11T06:28:06.028Z,30.85
2023-02-11T06:31:10.087Z,30.23
2023-02-11T06:34:13.874Z,29.71
2023-02-11T06:37:18.129Z,30.72
2023-02-11T06:40:22.206Z,30.29
2023-02-11T06:43:26.207Z,31.32
2023-02-11T06:46:30.126Z,29.91
2023-02-11T06:49:34.202Z,30.47
2023-02-11T06:52:40.383Z,29.85
2023-02-11T06:55:44.529Z,30.59
2023-02-11T06:58:48.554Z,31.53
2023-02-11T07:01:52.505Z,31.04
2023-02-11T07:04:56.485Z,31.25
2023-02-11T07:08:02.063Z,30.86
2023-02-11T07:11:08.062Z,31.40
2023-02-11T07:14:12.199Z,30.58
2023-02-11T07:17:16.155Z,30.08
2023-02-11T07:20:22.206Z,30.37
2023-02-11T07:23:26.349Z,30.20
2023-02-11T07:26:30.568Z,30.12
2023-02-11T07:29:34.473Z,29.93
2023-02-11T07:32:38.455Z,30.88
2023-02-11T07:35:42.815Z,30.79
2023-02-11T07:38:46.861Z,31.29
2023-02-11T07:41:50.983Z,31.04
2023-02-11T07:44:57.018Z,31.27
2023-02-11T07:48:05.496Z,31.47
2023-02-11T07:51:09.593Z,31.71
2023-02-11T07:54:13.436Z,32.69
2023-02-11T07:57:17.375Z,32.34
2023-02-11T08:00:23.492Z,33.40
2023-02-11T08:03:27.681Z,32.22
2023-02-11T08:06:31.700Z,33.60
2023-02-11T08:09:37.362Z,34.65
2023-02-11T08:12:47.425Z,34.10
2023-02-11T08:15:51.826Z,34.22
2023-02-11T08:18:55.993Z,34.98
2023-02-11T08:22:01.426Z,36.38
2023-02-11T08:25:05.585Z,41.18
2023-02-11T08:28:09.585Z,42.38
2023-02-11T08:31:13.590Z,42.48
2023-02-11T08:34:17.517Z,44.50
2023-02-11T08:37:23.707Z,43.54
2023-02-11T08:40:27.781Z,45.19
2023-02-11T08:43:33.826Z,44.10
2023-02-11T08:46:42.928Z,43.45
2023-02-11T08:49:46.974Z,43.52
2023-02-11T08:52:52.237Z,43.54
2023-02-11T08:55:56.473Z,43.30
2023-02-11T08:59:00.587Z,42.70
2023-02-11T09:02:09.335Z,43.76
2023-02-11T09:05:13.294Z,43.37
2023-02-11T09:08:17.245Z,43.10
2023-02-11T09:11:21.172Z,42.24
2023-02-11T09:14:25.218Z,42.54
2023-02-11T09:17:29.441Z,43.52
2023-02-11T09:20:33.428Z,41.43
2023-02-11T09:23:37.306Z,42.34
2023-02-11T09:26:41.279Z,44.09
2023-02-11T09:29:45.374Z,42.43
2023-02-11T09:32:49.409Z,43.47
2023-02-11T09:35:53.359Z,43.61
2023-02-11T09:38:58.752Z,43.43
2023-02-11T09:42:02.782Z,43.56
2023-02-11T09:45:06.924Z,43.01
2023-02-11T09:48:11.010Z,43.80
2023-02-11T09:51:15.107Z,43.87
2023-02-11T09:54:18.981Z,43.35
2023-02-11T09:57:28.550Z,44.61
2023-02-11T10:00:33.406Z,44.61
2023-02-11T10:03:37.345Z,44.52
2023-02-11T10:06:41.442Z,45.73
2023-02-11T10:09:45.543Z,45.98
2023-02-11T10:12:49.679Z,46.68
2023-02-11T10:15:53.685Z,46.45
2023-02-11T10:18:57.539Z,47.56
2023-02-11T10:22:03.555Z,48.55
2023-02-11T10:25:07.625Z,47.43
2023-02-11T10:28:12.134Z,47.35
2023-02-11T10:31:15.850Z,47.89
2023-02-11T10:34:21.303Z,46.10
2023-02-11T10:37:25.618Z,46.84
2023-02-11T10:40:31.455Z,46.43
2023-02-11T10:43:35.512Z,48.24
2023-02-11T10:46:39.516Z,46.48
2023-02-11T10:49:43.490Z,47.55
2023-02-11T10:52:47.485Z,47.32
2023-02-11T10:55:51.807Z,46.84
2023-02-11T10:58:55.843Z,46.18
2023-02-11T11:01:59.849Z,47.20
2023-02-11T11:05:03.769Z,46.51
2023-02-11T11:08:07.731Z,45.84
2023-02-11T11:11:11.784Z,46.36
2023-02-11T11:14:17.007Z,44.93
2023-02-11T11:17:20.852Z,44.10
2023-02-11T11:20:27.199Z,44.83
2023-02-11T11:23:31.054Z,44.54
2023-02-11T11:26:35.472Z,42.84
2023-02-11T11:29:41.405Z,42.49
2023-02-11T11:32:45.252Z,44.85
2023-02-11T11:35:49.561Z,43.68
2023-02-11T11:38:53.591Z,44.12
2023-02-11T11:41:57.873Z,44.37
2023-02-11T11:45:02.026Z,45.01
2023-02-11T11:48:05.840Z,43.89
2023-02-11T11:51:09.867Z,43.09
2023-02-11T11:54:14.117Z,44.96
2023-02-11T11:57:17.871Z,43.62
2023-02-11T12:00:23.149Z,44.30
2023-02-11T12:03:27.410Z,44.95
2023-02-11T12:06:36.574Z,44.00
2023-02-11T12:09:42.878Z,43.53
2023-02-11T12:12:47.004Z,44.08
2023-02-11T12:15:50.941Z,44.98
2023-02-11T12:18:54.641Z,43.70
2023-02-11T12:21:59.128Z,42.48
2023-02-11T12:25:03.096Z,43.10
2023-02-11T12:28:06.872Z,43.84
2023-02-11T12:34:33.236Z,43.29
2023-02-11T12:37:37.358Z,44.38
2023-02-11T12:40:41.357Z,44.31
2023-02-11T12:43:45.338Z,42.75
2023-02-11T12:46:49.678Z,44.71
2023-02-11T12:49:53.737Z,43.25
2023-02-11T12:52:57.991Z,42.49
2023-02-11T12:56:01.937Z,43.36
2023-02-11T12:59:07.469Z,41.78
2023-02-11T13:02:12.819Z,42.66
2023-02-11T13:05:17.176Z,41.24
2023-02-11T13:08:21.104Z,39.73
2023-02-11T13:11:25.052Z,41.39
2023-02-11T13:14:31.155Z,41.59
2023-02-11T13:17:35.015Z,42.50
2023-02-11T13:20:38.970Z,40.99
2023-02-11T13:23:43.065Z,41.41
2023-02-11T13:26:47.139Z,40.34
2023-02-11T13:29:51.112Z,39.76
2023-02-11T13:32:55.179Z,40.78
2023-02-11T13:35:59.389Z,41.87
2023-02-11T13:39:03.568Z,41.99
2023-02-11T13:42:07.310Z,41.82
2023-02-11T13:45:11.479Z,40.40
2023-02-11T13:48:15.239Z,40.33
2023-02-11T13:51:19.132Z,40.02
2023-02-11T13:54:23.110Z,41.18
2023-02-11T13:57:27.097Z,39.83
2023-02-11T14:00:30.917Z,40.02
